createdAt,value
2022-08-25T00:00:14.082Z,101473.63
2022-08-25T00:02:41.763Z,101473.84
2022-08-25T00:05:22.405Z,101474.72
2022-08-25T00:07:49.451Z,101472.13
2022-08-25T00:10:16.450Z,101479.19
2022-08-25T00:12:43.419Z,101478.38
2022-08-25T00:15:11.181Z,101474.03
2022-08-25T00:17:38.212Z,101466.16
2022-08-25T00:20:09.460Z,101467.94
2022-08-25T00:22:36.612Z,101476.94
2022-08-25T00:25:04.322Z,101461.69
2022-08-25T00:27:31.326Z,101467.09
2022-08-25T00:29:58.480Z,101469.06
2022-08-25T00:32:25.647Z,101455.78
2022-08-25T00:34:53.296Z,101463.94
2022-08-25T00:37:20.338Z,101465.72
2022-08-25T00:39:47.399Z,101459.41
2022-08-25T00:42:16.243Z,101464.00
2022-08-25T00:44:44.036Z,101464.91
2022-08-25T00:47:11.529Z,101457.88
2022-08-25T00:49:44.824Z,101459.72
2022-08-25T00:52:22.044Z,101450.97
2022-08-25T00:55:15.653Z,101457.19
2022-08-25T00:57:57.807Z,101450.94
2022-08-25T01:00:42.154Z,101452.56
2022-08-25T01:03:10.020Z,101455.25
2022-08-25T01:05:38.135Z,101441.09
2022-08-25T01:08:07.032Z,101440.22
2022-08-25T01:10:37.144Z,101439.34
2022-08-25T01:13:19.454Z,101441.13
2022-08-25T01:15:49.624Z,101434.09
2022-08-25T01:18:16.931Z,101430.56
2022-08-25T01:20:43.982Z,101428.94
2022-08-25T01:23:11.016Z,101432.69
2022-08-25T01:26:09.888Z,101425.53
2022-08-25T01:28:38.208Z,101439.88
2022-08-25T01:31:24.060Z,101441.56
2022-08-25T01:33:51.615Z,101441.63
2022-08-25T01:36:21.290Z,101440.69
2022-08-25T01:38:48.880Z,101441.69
2022-08-25T01:41:51.320Z,101434.50
2022-08-25T01:44:19.270Z,101434.75
2022-08-25T01:46:46.445Z,101441.09
2022-08-25T01:49:13.411Z,101429.59
2022-08-25T01:52:06.349Z,101433.09
2022-08-25T01:54:33.560Z,101436.66
2022-08-25T01:57:00.637Z,101437.66
2022-08-25T01:59:27.880Z,101427.00
2022-08-25T02:01:59.979Z,101428.78
2022-08-25T02:04:32.362Z,101441.41
2022-08-25T02:07:01.966Z,101436.84
2022-08-25T02:09:29.505Z,101433.38
2022-08-25T02:11:56.920Z,101433.53
2022-08-25T02:14:24.322Z,101427.38
2022-08-25T02:16:53.752Z,101430.00
2022-08-25T02:19:24.395Z,101426.53
2022-08-25T02:21:51.949Z,101423.13
2022-08-25T02:24:19.112Z,101417.81
2022-08-25T02:26:46.156Z,101424.13
2022-08-25T02:29:13.892Z,101427.75
2022-08-25T02:31:41.095Z,101417.91
2022-08-25T02:34:10.110Z,101427.00
2022-08-25T02:36:39.279Z,101425.19
2022-08-25T02:39:09.232Z,101414.56
2022-08-25T02:41:36.937Z,101414.69
2022-08-25T02:44:05.206Z,101415.63
2022-08-25T02:46:33.034Z,101415.63
2022-08-25T02:49:00.724Z,101412.06
2022-08-25T02:51:32.090Z,101410.34
2022-08-25T02:54:02.187Z,101411.31
2022-08-25T02:56:31.431Z,101404.25
2022-08-25T02:59:00.287Z,101403.38
2022-08-25T03:01:29.248Z,101401.63
2022-08-25T03:03:57.297Z,101399.69
2022-08-25T03:06:25.306Z,101399.78
2022-08-25T03:08:53.345Z,101397.09
2022-08-25T03:11:21.764Z,101395.31
2022-08-25T03:13:51.091Z,101401.53
2022-08-25T03:16:18.775Z,101392.63
2022-08-25T03:18:46.245Z,101394.44
2022-08-25T03:21:13.460Z,101391.66
2022-08-25T03:23:44.316Z,101385.50
2022-08-25T03:26:30.245Z,101379.41
2022-08-25T03:28:57.904Z,101369.69
2022-08-25T03:31:27.771Z,101375.91
2022-08-25T03:33:55.384Z,101378.50
2022-08-25T03:36:22.631Z,101368.00
2022-08-25T03:38:49.907Z,101370.69
2022-08-25T03:41:24.327Z,101375.19
2022-08-25T03:43:56.403Z,101367.25
2022-08-25T03:46:40.657Z,101370.94
2022-08-25T03:49:12.029Z,101370.09
2022-08-25T03:51:48.720Z,101358.69
2022-08-25T03:54:20.084Z,101360.38
2022-08-25T03:56:47.441Z,101358.66
2022-08-25T03:59:14.558Z,101352.44
2022-08-25T04:01:45.557Z,101359.63
2022-08-25T04:04:14.964Z,101370.03
2022-08-25T04:06:43.976Z,101368.19
2022-08-25T04:09:11.792Z,101366.34
2022-08-25T04:11:39.656Z,101364.53
2022-08-25T04:14:10.337Z,101368.88
2022-08-25T04:16:44.227Z,101367.97
2022-08-25T04:19:11.604Z,101371.59
2022-08-25T04:21:40.760Z,101367.09
2022-08-25T04:24:11.034Z,101371.59
2022-08-25T04:26:48.025Z,101366.34
2022-08-25T04:29:19.133Z,101361.16
2022-08-25T04:31:50.903Z,101359.28
2022-08-25T04:34:29.809Z,101360.25
2022-08-25T04:37:05.491Z,101354.84
2022-08-25T04:39:35.245Z,101347.59
2022-08-25T04:42:03.306Z,101353.03
2022-08-25T04:44:31.989Z,101359.38
2022-08-25T04:47:00.231Z,101354.06
2022-08-25T04:49:28.757Z,101357.63
2022-08-25T04:51:57.507Z,101358.63
2022-08-25T04:54:24.749Z,101360.34
2022-08-25T04:56:54.585Z,101368.47
2022-08-25T04:59:30.114Z,101370.25
2022-08-25T05:02:02.531Z,101364.06
2022-08-25T05:04:30.293Z,101357.81
2022-08-25T05:06:58.136Z,101359.63
2022-08-25T05:09:26.399Z,101358.84
2022-08-25T05:11:54.742Z,101370.31
2022-08-25T05:14:26.264Z,101367.63
2022-08-25T05:16:55.588Z,101373.88
2022-08-25T05:19:24.332Z,101376.53
2022-08-25T05:21:52.278Z,101374.78
2022-08-25T05:24:20.444Z,101367.63
2022-08-25T05:26:47.794Z,101381.00
2022-08-25T05:29:15.697Z,101385.44
2022-08-25T05:31:48.296Z,101417.09
2022-08-25T05:34:19.057Z,101415.44
2022-08-25T05:36:46.940Z,101407.09
2022-08-25T05:39:14.673Z,101403.81
2022-08-25T05:41:41.711Z,101405.47
2022-08-25T05:44:08.866Z,101403.81
2022-08-25T05:46:35.864Z,101415.72
2022-08-25T05:49:02.909Z,101408.00
2022-08-25T05:51:30.126Z,101413.88
2022-08-25T05:53:57.215Z,101410.88
2022-08-25T05:56:24.253Z,101407.81
2022-08-25T05:58:51.386Z,101406.66
2022-08-25T06:01:47.526Z,101406.38
2022-08-25T06:04:17.977Z,101409.72
2022-08-25T06:06:45.004Z,101394.28
2022-08-25T06:09:12.843Z,101399.53
2022-08-25T06:11:41.375Z,101394.84
2022-08-25T06:14:10.051Z,101391.03
2022-08-25T06:16:39.035Z,101392.75
2022-08-25T06:19:08.397Z,101399.78
2022-08-25T06:21:37.375Z,101399.66
2022-08-25T06:24:05.067Z,101397.78
2022-08-25T06:26:32.074Z,101398.59
2022-08-25T06:28:59.089Z,101391.31
2022-08-25T06:31:26.483Z,101399.25
2022-08-25T06:33:53.655Z,101397.44
2022-08-25T06:36:21.168Z,101399.25
2022-08-25T06:38:48.660Z,101395.69
2022-08-25T06:41:16.739Z,101396.50
2022-08-25T06:43:49.064Z,101398.25
2022-08-25T06:46:31.730Z,101391.94
2022-08-25T06:49:06.791Z,101397.25
2022-08-25T06:51:37.454Z,101402.59
2022-08-25T06:54:07.533Z,101395.38
2022-08-25T06:56:35.964Z,101398.00
2022-08-25T06:59:05.700Z,101389.91
2022-08-25T07:01:33.870Z,101389.84
2022-08-25T07:04:07.569Z,101391.66
2022-08-25T07:06:37.751Z,101385.31
2022-08-25T07:09:07.489Z,101380.81
2022-08-25T07:11:35.449Z,101379.88
2022-08-25T07:14:05.670Z,101376.22
2022-08-25T07:16:33.252Z,101377.03
2022-08-25T07:19:01.921Z,101376.84
2022-08-25T07:21:33.654Z,101374.28
2022-08-25T07:24:07.933Z,101379.69
2022-08-25T07:26:38.219Z,101372.53
2022-08-25T07:29:32.882Z,101378.66
2022-08-25T07:32:04.902Z,101370.66
2022-08-25T07:34:52.482Z,101382.31
2022-08-25T07:40:17.920Z,101377.66
2022-08-25T07:42:45.520Z,101378.53
2022-08-25T07:45:17.319Z,101382.94
2022-08-25T07:47:48.521Z,101378.41
2022-08-25T07:50:20.040Z,101382.88
2022-08-25T07:52:53.918Z,101383.63
2022-08-25T07:55:27.364Z,101393.47
2022-08-25T07:57:57.284Z,101392.53
2022-08-25T08:00:28.009Z,101396.09
2022-08-25T08:02:55.502Z,101394.34
2022-08-25T08:05:23.978Z,101395.88
2022-08-25T08:07:53.169Z,101399.38
2022-08-25T08:13:10.182Z,101400.19
2022-08-25T08:15:37.984Z,101393.72
2022-08-25T08:18:07.237Z,101389.16
2022-08-25T08:20:42.489Z,101394.34
2022-08-25T08:23:11.731Z,101394.34
2022-08-25T08:25:38.784Z,101399.44
2022-08-25T08:28:07.133Z,101393.09
2022-08-25T08:30:36.618Z,101398.25
2022-08-25T08:33:10.215Z,101397.13
2022-08-25T08:35:43.060Z,101400.16
2022-08-25T08:38:17.400Z,101398.94
2022-08-25T08:41:23.010Z,101401.91
2022-08-25T08:44:00.682Z,101398.41
2022-08-25T08:46:53.798Z,101395.63
2022-08-25T08:50:07.651Z,101403.59
2022-08-25T08:53:06.743Z,101397.47
2022-08-25T08:55:52.656Z,101401.91
2022-08-25T08:58:49.802Z,101401.97
2022-08-25T09:02:06.093Z,101394.88
2022-08-25T09:04:58.266Z,101391.19
2022-08-25T09:07:36.567Z,101387.53
2022-08-25T09:10:10.307Z,101390.19
2022-08-25T09:12:52.119Z,101383.69
2022-08-25T09:16:34.446Z,101390.91
2022-08-25T09:19:52.341Z,101386.31
2022-08-25T09:22:43.762Z,101388.56
2022-08-25T09:25:52.611Z,101380.19
2022-08-25T09:28:43.091Z,101379.38
2022-08-25T09:31:24.277Z,101370.53
2022-08-25T09:34:00.009Z,101383.03
2022-08-25T09:36:27.569Z,101379.25
2022-08-25T09:38:54.625Z,101374.38
2022-08-25T09:41:40.468Z,101373.97
2022-08-25T09:44:26.263Z,101365.34
2022-08-25T09:47:08.354Z,101365.34
2022-08-25T09:49:46.632Z,101366.97
2022-08-25T09:52:32.993Z,101364.69
2022-08-25T09:55:34.413Z,101361.50
2022-08-25T09:58:20.255Z,101368.38
2022-08-25T10:01:22.572Z,101370.34
2022-08-25T10:04:06.662Z,101365.00
2022-08-25T10:06:47.293Z,101358.75
2022-08-25T10:09:31.383Z,101360.50
2022-08-25T10:12:01.500Z,101355.16
2022-08-25T10:14:44.495Z,101348.34
2022-08-25T10:17:24.847Z,101348.75
2022-08-25T10:20:20.758Z,101345.91
2022-08-25T10:22:51.153Z,101352.03
2022-08-25T10:25:29.952Z,101342.13
2022-08-25T10:28:15.529Z,101340.28
2022-08-25T10:31:34.940Z,101345.09
2022-08-25T10:34:22.018Z,101335.25
2022-08-25T10:37:32.668Z,101335.38
2022-08-25T10:40:19.410Z,101334.44
2022-08-25T10:43:26.068Z,101322.69
2022-08-25T10:46:36.930Z,101325.41
2022-08-25T10:49:35.383Z,101321.81
2022-08-25T10:52:36.715Z,101324.09
2022-08-25T10:55:43.883Z,101322.44
2022-08-25T10:58:24.180Z,101317.84
2022-08-25T11:01:42.929Z,101312.00
2022-08-25T11:04:26.211Z,101311.06
2022-08-25T11:07:28.908Z,101309.22
2022-08-25T11:10:03.073Z,101310.19
2022-08-25T11:13:01.679Z,101301.63
2022-08-25T11:16:13.706Z,101302.06
2022-08-25T11:18:56.060Z,101294.59
2022-08-25T11:21:51.543Z,101292.72
2022-08-25T11:24:27.648Z,101299.09
2022-08-25T11:26:57.172Z,101293.59
2022-08-25T11:29:35.412Z,101277.75
2022-08-25T11:32:04.889Z,101276.63
2022-08-25T11:34:36.316Z,101277.44
2022-08-25T11:37:25.824Z,101269.94
2022-08-25T11:40:05.718Z,101266.94
2022-08-25T11:43:11.679Z,101271.41
2022-08-25T11:46:16.168Z,101270.72
2022-08-25T11:49:21.707Z,101270.19
2022-08-25T11:51:51.313Z,101265.81
2022-08-25T11:54:42.972Z,101252.59
2022-08-25T11:57:22.154Z,101256.91
2022-08-25T11:59:57.672Z,101250.88
2022-08-25T12:02:41.572Z,101254.38
2022-08-25T12:05:18.971Z,101243.47
2022-08-25T12:08:24.237Z,101243.84
2022-08-25T12:11:10.602Z,101241.00
2022-08-25T12:13:51.611Z,101233.91
2022-08-25T12:16:41.993Z,101235.97
2022-08-25T12:19:35.246Z,101227.09
2022-08-25T12:22:03.565Z,101231.22
2022-08-25T12:24:47.972Z,101230.19
2022-08-25T12:27:39.757Z,101230.09
2022-08-25T12:30:21.950Z,101235.03
2022-08-25T12:33:22.447Z,101230.75
2022-08-25T12:36:01.076Z,101235.13
2022-08-25T12:38:43.598Z,101232.09
2022-08-25T12:41:22.479Z,101232.00
2022-08-25T12:44:08.925Z,101233.44
2022-08-25T12:46:39.602Z,101224.94
2022-08-25T12:49:34.810Z,101230.31
2022-08-25T12:52:31.867Z,101232.28
2022-08-25T12:55:06.099Z,101227.38
2022-08-25T12:57:57.772Z,101232.00
2022-08-25T13:00:36.432Z,101227.44
2022-08-25T13:03:54.273Z,101221.81
2022-08-25T13:07:02.909Z,101222.66
2022-08-25T13:10:12.975Z,101230.19
2022-08-25T13:12:57.952Z,101215.78
2022-08-25T13:15:48.754Z,101207.84
2022-08-25T13:18:35.001Z,101212.03
2022-08-25T13:21:18.974Z,101208.28
2022-08-25T13:23:53.973Z,101195.47
2022-08-25T13:26:47.157Z,101202.75
2022-08-25T13:29:22.861Z,101191.44
2022-08-25T13:32:09.169Z,101188.72
2022-08-25T13:34:42.537Z,101188.13
2022-08-25T13:37:29.508Z,101194.50
2022-08-25T13:40:26.775Z,101197.50
2022-08-25T13:43:03.215Z,101190.09
2022-08-25T13:45:41.536Z,101193.13
2022-08-25T13:48:20.747Z,101187.88
2022-08-25T13:50:54.177Z,101171.91
2022-08-25T13:53:26.642Z,101179.28
2022-08-25T13:56:03.407Z,101177.22
2022-08-25T13:58:44.817Z,101173.97
2022-08-25T14:01:48.110Z,101177.06
2022-08-25T14:04:51.515Z,101182.94
2022-08-25T14:07:22.810Z,101176.59
2022-08-25T14:09:56.322Z,101176.59
2022-08-25T14:12:36.265Z,101173.56
2022-08-25T14:15:16.408Z,101176.88
2022-08-25T14:18:01.068Z,101172.59
2022-08-25T14:20:31.424Z,101159.88
2022-08-25T14:23:16.137Z,101156.84
2022-08-25T14:25:46.701Z,101161.63
2022-08-25T14:28:18.927Z,101167.75
2022-08-25T14:30:54.748Z,101167.69
2022-08-25T14:33:28.090Z,101165.88
2022-08-25T14:35:58.310Z,101163.06
2022-08-25T14:38:25.983Z,101160.78
2022-08-25T14:40:53.894Z,101163.63
2022-08-25T14:43:23.689Z,101159.50
2022-08-25T14:45:52.216Z,101159.81
2022-08-25T14:48:45.616Z,101161.88
2022-08-25T14:51:15.139Z,101157.97
2022-08-25T14:53:44.113Z,101165.06
2022-08-25T14:56:11.395Z,101165.34
2022-08-25T14:58:51.225Z,101161.72
2022-08-25T15:01:28.866Z,101160.34
2022-08-25T15:04:23.350Z,101158.69
2022-08-25T15:06:58.615Z,101160.38
2022-08-25T15:09:26.675Z,101153.91
2022-08-25T15:12:00.986Z,101158.53
2022-08-25T15:14:28.828Z,101151.72
2022-08-25T15:17:06.232Z,101117.91
2022-08-25T15:19:36.597Z,101125.41
2022-08-25T15:22:04.465Z,101120.94
2022-08-25T15:24:37.379Z,101111.41
2022-08-25T15:27:10.155Z,101109.03
2022-08-25T15:29:37.755Z,101112.00
2022-08-25T15:32:08.232Z,101103.06
2022-08-25T15:34:36.964Z,101096.81
2022-08-25T15:37:14.501Z,101108.72
2022-08-25T15:39:44.594Z,101100.75
2022-08-25T15:42:12.304Z,101108.97
2022-08-25T15:44:40.136Z,101106.38
2022-08-25T15:47:08.957Z,101107.97
2022-08-25T15:49:40.124Z,101115.41
2022-08-25T15:52:07.140Z,101121.88
2022-08-25T15:54:34.200Z,101127.16
2022-08-25T15:57:09.182Z,101125.22
2022-08-25T15:59:40.274Z,101126.38
2022-08-25T16:02:15.192Z,101124.44
2022-08-25T16:04:42.738Z,101114.84
2022-08-25T16:07:10.141Z,101120.94
2022-08-25T16:09:41.736Z,101128.38
2022-08-25T16:12:09.012Z,101133.44
2022-08-25T16:14:38.604Z,101137.91
2022-08-25T16:17:06.615Z,101133.53
2022-08-25T16:19:33.696Z,101139.44
2022-08-25T16:22:03.432Z,101136.44
2022-08-25T16:24:34.530Z,101138.41
2022-08-25T16:27:11.536Z,101144.06
2022-08-25T16:29:43.939Z,101148.44
2022-08-25T16:32:14.454Z,101139.72
2022-08-25T16:34:44.327Z,101143.56
2022-08-25T16:37:12.372Z,101141.41
2022-08-25T16:39:44.128Z,101151.19
2022-08-25T16:42:12.306Z,101150.06
2022-08-25T16:44:39.964Z,101148.94
2022-08-25T16:47:08.802Z,101144.66
2022-08-25T16:49:36.520Z,101146.59
2022-08-25T16:52:25.098Z,101148.91
2022-08-25T16:55:15.081Z,101156.06
2022-08-25T16:57:54.270Z,101144.31
2022-08-25T17:00:28.300Z,101159.38
2022-08-25T17:03:01.647Z,101150.13
2022-08-25T17:05:29.716Z,101151.53
2022-08-25T17:08:18.596Z,101149.16
2022-08-25T17:10:46.727Z,101152.16
2022-08-25T17:13:13.975Z,101152.81
2022-08-25T17:15:45.323Z,101153.16
2022-08-25T17:18:13.805Z,101161.34
2022-08-25T17:20:44.745Z,101164.16
2022-08-25T17:23:13.094Z,101157.59
2022-08-25T17:25:43.135Z,101160.31
2022-08-25T17:28:12.230Z,101160.81
2022-08-25T17:30:40.758Z,101161.19
2022-08-25T17:33:08.122Z,101156.44
2022-08-25T17:35:48.599Z,101157.56
2022-08-25T17:38:19.876Z,101154.25
2022-08-25T17:40:48.184Z,101153.09
2022-08-25T17:43:15.648Z,101163.06
2022-08-25T17:45:42.754Z,101164.88
2022-08-25T17:48:13.212Z,101170.44
2022-08-25T17:50:41.419Z,101157.41
2022-08-25T17:53:09.460Z,101165.06
2022-08-25T17:55:38.077Z,101166.63
2022-08-25T17:58:05.234Z,101164.09
2022-08-25T18:00:32.919Z,101169.09
2022-08-25T18:03:00.412Z,101169.56
2022-08-25T18:05:27.973Z,101167.19
2022-08-25T18:07:55.259Z,101183.59
2022-08-25T18:10:22.896Z,101174.91
2022-08-25T18:12:50.243Z,101180.72
2022-08-25T18:15:18.059Z,101177.78
2022-08-25T18:17:45.447Z,101185.91
2022-08-25T18:20:14.468Z,101196.28
2022-08-25T18:22:44.009Z,101200.09
2022-08-25T18:25:14.676Z,101202.59
2022-08-25T18:27:42.852Z,101213.59
2022-08-25T18:30:11.049Z,101222.81
2022-08-25T18:32:38.530Z,101227.88
2022-08-25T18:35:07.316Z,101224.69
2022-08-25T18:37:53.171Z,101230.59
2022-08-25T18:40:23.530Z,101220.97
2022-08-25T18:43:01.900Z,101233.06
2022-08-25T18:45:40.617Z,101242.34
2022-08-25T18:48:09.028Z,101238.34
2022-08-25T18:50:39.498Z,101237.03
2022-08-25T18:53:07.760Z,101244.72
2022-08-25T18:55:36.387Z,101253.91
2022-08-25T18:58:04.412Z,101245.94
2022-08-25T19:00:32.628Z,101259.84
2022-08-25T19:03:01.139Z,101268.25
2022-08-25T19:05:33.394Z,101259.69
2022-08-25T19:08:03.923Z,101270.00
2022-08-25T19:10:32.420Z,101268.53
2022-08-25T19:13:02.196Z,101274.13
2022-08-25T19:15:37.655Z,101281.88
2022-08-25T19:18:09.972Z,101281.06
2022-08-25T19:20:37.972Z,101280.47
2022-08-25T19:23:07.748Z,101291.41
2022-08-25T19:25:41.394Z,101297.88
2022-08-25T19:28:12.735Z,101298.00
2022-08-25T19:30:49.754Z,101303.72
2022-08-25T19:33:42.168Z,101309.38
2022-08-25T19:36:08.818Z,101306.31
2022-08-25T19:38:37.563Z,101310.41
2022-08-25T19:41:13.983Z,101312.41
2022-08-25T19:43:55.839Z,101319.59
2022-08-25T19:46:32.281Z,101325.88
2022-08-25T19:49:08.817Z,101327.38
2022-08-25T19:51:39.827Z,101319.16
2022-08-25T19:54:10.368Z,101334.75
2022-08-25T19:56:43.918Z,101319.69
2022-08-25T19:59:42.298Z,101327.16
2022-08-25T20:02:15.948Z,101336.16
2022-08-25T20:04:50.266Z,101337.25
2022-08-25T20:07:21.734Z,101342.00
2022-08-25T20:09:55.378Z,101346.72
2022-08-25T20:12:25.142Z,101336.97
2022-08-25T20:14:54.633Z,101335.28
2022-08-25T20:17:26.173Z,101338.25
2022-08-25T20:19:59.314Z,101327.59
2022-08-25T20:22:31.543Z,101330.63
2022-08-25T20:25:07.629Z,101336.75
2022-08-25T20:27:50.779Z,101327.97
2022-08-25T20:30:28.732Z,101337.84
2022-08-25T20:32:58.096Z,101346.97
2022-08-25T20:35:27.353Z,101341.69
2022-08-25T20:37:56.836Z,101337.28
2022-08-25T20:40:27.538Z,101339.31
2022-08-25T20:42:57.007Z,101359.00
2022-08-25T20:45:24.274Z,101351.88
2022-08-25T20:47:51.657Z,101360.81
2022-08-25T20:50:27.488Z,101356.38
2022-08-25T20:52:56.894Z,101347.59
2022-08-25T20:55:25.097Z,101350.38
2022-08-25T20:57:53.746Z,101356.78
2022-08-25T21:00:23.510Z,101354.19
2022-08-25T21:02:52.945Z,101357.91
2022-08-25T21:05:20.225Z,101357.09
2022-08-25T21:07:47.384Z,101354.50
2022-08-25T21:10:16.194Z,101357.22
2022-08-25T21:12:45.069Z,101363.63
2022-08-25T21:15:13.750Z,101357.41
2022-08-25T21:17:49.642Z,101367.31
2022-08-25T21:20:17.325Z,101352.13
2022-08-25T21:22:44.361Z,101362.16
2022-08-25T21:25:12.583Z,101362.06
2022-08-25T21:27:39.832Z,101378.34
2022-08-25T21:30:11.760Z,101375.72
2022-08-25T21:32:38.757Z,101371.31
2022-08-25T21:35:07.755Z,101381.22
2022-08-25T21:37:35.092Z,101380.47
2022-08-25T21:40:02.514Z,101383.97
2022-08-25T21:42:34.418Z,101373.34
2022-08-25T21:45:02.717Z,101385.03
2022-08-25T21:47:29.836Z,101390.59
2022-08-25T21:49:56.916Z,101388.94
2022-08-25T21:52:23.979Z,101399.63
2022-08-25T21:54:51.943Z,101398.78
2022-08-25T21:57:23.722Z,101399.84
2022-08-25T21:59:50.870Z,101398.03
2022-08-25T22:02:22.578Z,101399.06
2022-08-25T22:04:54.425Z,101402.56
2022-08-25T22:07:24.475Z,101409.84
2022-08-25T22:09:52.730Z,101414.34
2022-08-25T22:12:19.824Z,101411.66
2022-08-25T22:14:46.841Z,101415.44
2022-08-25T22:17:14.108Z,101414.50
2022-08-25T22:19:45.617Z,101415.50
2022-08-25T22:22:13.847Z,101416.41
2022-08-25T22:24:40.856Z,101415.63
2022-08-25T22:27:12.088Z,101419.13
2022-08-25T22:29:43.602Z,101422.84
2022-08-25T22:32:13.727Z,101419.31
2022-08-25T22:34:41.276Z,101417.59
2022-08-25T22:37:10.787Z,101419.53
2022-08-25T22:39:38.419Z,101417.69
2022-08-25T22:42:07.544Z,101431.09
2022-08-25T22:44:37.224Z,101426.69
2022-08-25T22:47:04.577Z,101426.81
2022-08-25T22:49:31.876Z,101422.44
2022-08-25T22:51:58.849Z,101437.59
2022-08-25T22:54:25.837Z,101428.59
2022-08-25T22:59:22.600Z,101433.25
2022-08-25T23:01:52.448Z,101428.75
2022-08-25T23:04:19.752Z,101434.19
2022-08-25T23:06:47.733Z,101428.91
2022-08-25T23:09:14.863Z,101434.28
2022-08-25T23:11:43.077Z,101444.09
2022-08-25T23:14:11.453Z,101432.56
2022-08-25T23:16:43.482Z,101436.13
2022-08-25T23:19:13.989Z,101434.41
2022-08-25T23:22:03.426Z,101436.28
2022-08-25T23:24:31.832Z,101437.19
2022-08-25T23:27:04.370Z,101436.28
2022-08-25T23:29:34.345Z,101435.47
2022-08-25T23:32:02.850Z,101431.06
2022-08-25T23:34:30.299Z,101431.97
2022-08-25T23:36:57.722Z,101435.53
2022-08-25T23:39:25.364Z,101436.50
2022-08-25T23:41:52.970Z,101448.97
2022-08-25T23:44:22.850Z,101441.84
2022-08-25T23:46:53.435Z,101444.50
2022-08-25T23:49:23.492Z,101449.03
2022-08-25T23:51:52.754Z,101442.94
2022-08-25T23:54:21.356Z,101443.69
2022-08-25T23:56:51.599Z,101439.25
2022-08-25T23:59:24.394Z,101439.28
